Log Lane Village, CO

8:41 PM MDT on July 11, 2014 (GMT -0600)
Akron-Washington County (KAKO) Elev 4662 ft | 40.17 °N, 103.21 °W | Change Station

Current weather conditions updated 24 minutes ago

Light Rain
Light Rain
66 °F
Feels Like 66 °F
N
13
Wind Variable Wind from North

Tomorrow is forecast to be Cooler than today. Thunderstorms early tomorrow night.

Today
High -- | Low -- °F
--% Chance of Precip.
Yesterday
High -- | Low -- °F
Precip. -- in
5:35 AM 8:25 PM
Full, 100% visible
Pressure 30.13 in
Visibility 10.0 miles
Clouds Mostly Cloudy 11000 ft
Dew Point 62 °F
Humidity 87%
Rainfall 0.01 in
Snow Depth Not available.
UV 0 out of 12
Pollen 4.60 out of 12
Air Quality Not available.
Flu Activity Local Activity
SPECI KAKO 120217Z AUTO 36011KT 10SM VCTS -RA BKN110 19/17 A3013 RMK AO2 LTG DSNT ALQDS TSE11 P0000 T01890167

More Conditions Fewer Conditions

Pressure 30.13 in
Visibility 10.0 miles
Clouds Mostly Cloudy 11000 ft
Dew Point 62 °F
Humidity 87%
Rainfall 0.01 in
Snow Depth Not available.
UV 0 out of 12
Pollen 4.60 out of 12
Air Quality Not available.
Flu Activity Local Activity
SPECI KAKO 120217Z AUTO 36011KT 10SM VCTS -RA BKN110 19/17 A3013 RMK AO2 LTG DSNT ALQDS TSE11 P0000 T01890167

More Conditions Fewer Conditions

Nowcast | as of 6:24 PM MDT on July 11, 2014

Thunderstorms over eastern parts of Morgan an Adams and Arapahoe counties will continue moving east with storms ending by sunset. Expect some lightning...winds to 40 mph...small hail and up to an inch of rain in 30 minutes.

×

10-Day Weather Forecast

Almanac

Astronomy

Jul. 11, 2014 Rise Set
Actual Time 5:35 AM MDT 8:25 PM MDT
Civil Twilight 5:03 AM MDT 8:58 PM MDT
Nautical Twilight 4:22 AM MDT 9:38 PM MDT
Astronomical Twilight 3:35 AM MDT 10:25 PM MDT
Moon 7:38 PM MDT (7/11) 4:50 AM MDT (7/11)
Length of Visible Light 15h 55m
Length of Day
14h 50m
Tomorrow will be 1m 12s shorter.
Full, 100% of the Moon is Illuminated
Today
Full
Jul 12
Full
Jul 18
Last Quarter
Jul 26
New
Aug 3
First Quarter

Today's Extremes

State Highs State Lows

Community

WunderPhotos

Upload Photos

1,732,655 photos uploaded!

Nearby

Snow Depth

Station Depth Elevation
Copeland Lake 0 in 8600 ft
Niwot 0 in 9910 ft
University Camp 0 in 10300 ft
Echo Lake 0 in 10600 ft
Lake Irene 2 in 10700 ft

Earthquake Activity

City Distance Mag. Time & Date
No recent earthquake activity has been reported nearby.
Minimum magnitude displayed is 2.5.

Coastal Water Temperatures

Place Temperature
No Stations Reporting

Nearby Weather Stations

Station Location Temp. Heat Index Dew Point Humidity Wind Precip. Elev Updated Type
Fort Morgan, Fort Morgan, CO 70.5 °F 71 °F 64 °F 81% NNE  at  0.0 mph 0.00 in / hr 4327 ft 8:41 PM MDT Rapid Fire
1 Mile North - Orchard, CO, Orchard, CO 69.1 °F - 60 °F 73% NW  at  2.7 mph - / hr 4439 ft 8:26 PM MDT Normal

Show More Stations Show Fewer Stations